createdAt,value
2019-01-25T00:01:45.251Z,67.28
2019-01-25T00:04:15.291Z,67.03
2019-01-25T00:06:45.559Z,67.07
2019-01-25T00:09:15.290Z,66.89
2019-01-25T00:11:45.062Z,66.89
2019-01-25T00:14:15.019Z,66.96
2019-01-25T00:16:45.343Z,67.11
2019-01-25T00:19:15.059Z,67.13
2019-01-25T00:21:44.958Z,67.19
2019-01-25T00:24:14.952Z,67.12
2019-01-25T00:26:45.261Z,66.97
2019-01-25T00:29:15.613Z,66.96
2019-01-25T00:31:45.557Z,67.09
2019-01-25T00:34:15.332Z,66.96
2019-01-25T00:36:45.275Z,67.03
2019-01-25T00:39:14.999Z,67.21
2019-01-25T00:41:45.646Z,67.21
2019-01-25T00:44:15.377Z,67.12
2019-01-25T00:46:45.661Z,66.89
2019-01-25T00:49:15.472Z,66.85
2019-01-25T00:51:45.679Z,66.78
2019-01-25T00:54:15.366Z,67.08
2019-01-25T00:56:45.169Z,67.18
2019-01-25T00:59:14.903Z,67.06
2019-01-25T01:01:45.039Z,67.03
2019-01-25T01:04:14.774Z,66.99
2019-01-25T01:06:44.982Z,66.73
2019-01-25T01:09:15.340Z,66.88
2019-01-25T01:11:47.135Z,66.85
2019-01-25T01:14:17.269Z,66.76
2019-01-25T01:16:50.569Z,66.66
2019-01-25T01:19:20.662Z,66.68
2019-01-25T01:21:50.538Z,66.70
2019-01-25T01:24:20.367Z,66.78
2019-01-25T01:26:59.728Z,66.65
2019-01-25T01:29:29.480Z,66.57
2019-01-25T01:32:00.359Z,66.54
2019-01-25T01:34:30.151Z,66.47
2019-01-25T01:36:59.964Z,66.34
2019-01-25T01:39:29.686Z,65.77
2019-01-25T01:42:00.397Z,66.03
2019-01-25T01:44:30.118Z,66.32
2019-01-25T01:46:59.942Z,66.53
2019-01-25T01:49:29.771Z,66.34
2019-01-25T01:52:00.383Z,66.54
2019-01-25T01:54:30.110Z,66.87
2019-01-25T01:56:59.931Z,66.92
2019-01-25T01:59:29.674Z,66.79
2019-01-25T02:01:59.983Z,66.88
2019-01-25T02:04:31.146Z,67.30
2019-01-25T02:07:00.943Z,67.33
2019-01-25T02:09:30.670Z,67.04
2019-01-25T02:12:00.406Z,67.04
2019-01-25T02:14:30.277Z,67.00
2019-01-25T02:16:59.989Z,67.03
2019-01-25T02:19:29.792Z,66.86
2019-01-25T02:22:00.034Z,66.97
2019-01-25T02:24:29.770Z,66.97
2019-01-25T02:27:00.030Z,66.84
2019-01-25T02:29:31.537Z,66.83
2019-01-25T02:32:02.163Z,66.77
2019-01-25T02:34:32.335Z,66.63
2019-01-25T02:37:02.053Z,66.83
2019-01-25T02:39:33.301Z,66.98
2019-01-25T02:42:03.031Z,66.83
2019-01-25T02:44:32.763Z,67.00
2019-01-25T02:47:02.502Z,67.23
2019-01-25T02:49:34.279Z,67.41
2019-01-25T02:52:06.051Z,67.49
2019-01-25T02:54:36.070Z,67.65
2019-01-25T02:57:06.005Z,67.53
2019-01-25T02:59:35.737Z,67.53
2019-01-25T03:02:06.690Z,67.37
2019-01-25T03:04:36.418Z,67.30
2019-01-25T03:07:06.509Z,67.26
2019-01-25T03:09:36.764Z,67.28
2019-01-25T03:12:06.579Z,67.15
2019-01-25T03:14:37.244Z,67.24
2019-01-25T03:17:07.172Z,67.24
2019-01-25T03:19:37.097Z,67.25
2019-01-25T03:22:07.402Z,67.38
2019-01-25T03:24:37.785Z,67.13
2019-01-25T03:27:10.085Z,67.04
2019-01-25T03:29:39.825Z,66.93
2019-01-25T03:32:09.559Z,66.99
2019-01-25T03:34:39.743Z,67.04
2019-01-25T03:37:09.508Z,67.06
2019-01-25T03:39:39.364Z,66.85
2019-01-25T03:42:09.171Z,66.60
2019-01-25T03:44:39.494Z,66.64
2019-01-25T03:47:09.802Z,66.85
2019-01-25T03:49:39.533Z,67.08
2019-01-25T03:52:09.704Z,67.20
2019-01-25T03:54:39.439Z,67.34
2019-01-25T03:57:09.161Z,67.29
2019-01-25T03:59:39.471Z,67.29
2019-01-25T04:02:09.807Z,67.22
2019-01-25T04:04:39.549Z,67.28
2019-01-25T04:07:09.519Z,67.24
2019-01-25T04:09:39.668Z,67.44
2019-01-25T04:12:09.854Z,67.64
2019-01-25T04:14:39.668Z,67.68
2019-01-25T04:17:10.121Z,67.65
2019-01-25T04:19:40.551Z,67.60
2019-01-25T04:22:10.555Z,67.48
2019-01-25T04:24:40.831Z,67.60
2019-01-25T04:27:10.568Z,67.69
2019-01-25T04:29:40.843Z,67.54
2019-01-25T04:32:10.575Z,67.46
2019-01-25T04:34:42.143Z,67.13
2019-01-25T04:37:12.891Z,66.95
2019-01-25T04:39:43.126Z,66.60
2019-01-25T04:42:13.438Z,66.60
2019-01-25T04:44:43.501Z,66.71
2019-01-25T04:47:13.250Z,66.82
2019-01-25T04:49:43.969Z,67.04
2019-01-25T04:52:14.986Z,67.02
2019-01-25T04:54:44.741Z,66.90
2019-01-25T04:57:14.548Z,66.92
2019-01-25T04:59:44.805Z,66.73
2019-01-25T05:02:14.535Z,66.74
2019-01-25T05:04:44.745Z,66.94
2019-01-25T05:07:14.453Z,66.96
2019-01-25T05:09:44.141Z,66.79
2019-01-25T05:12:13.810Z,66.86
2019-01-25T05:14:43.762Z,66.88
2019-01-25T05:17:13.521Z,66.69
2019-01-25T05:19:43.799Z,66.60
2019-01-25T05:22:13.487Z,66.47
2019-01-25T05:24:44.340Z,66.48
2019-01-25T05:27:16.798Z,66.35
2019-01-25T05:29:52.163Z,66.45
2019-01-25T05:32:22.156Z,66.55
2019-01-25T05:34:51.846Z,66.71
2019-01-25T05:37:23.493Z,66.73
2019-01-25T05:39:53.499Z,66.75
2019-01-25T05:42:23.195Z,66.74
2019-01-25T05:44:52.876Z,66.96
2019-01-25T05:47:22.558Z,67.01
2019-01-25T05:49:52.243Z,66.86
2019-01-25T05:52:22.028Z,66.86
2019-01-25T05:54:51.709Z,66.86
2019-01-25T05:57:22.590Z,67.09
2019-01-25T05:59:57.499Z,67.25
2019-01-25T06:02:27.709Z,67.35
2019-01-25T06:04:58.691Z,67.19
2019-01-25T06:07:28.754Z,67.20
2019-01-25T06:09:58.439Z,67.25
2019-01-25T06:12:28.118Z,67.40
2019-01-25T06:14:57.823Z,67.33
2019-01-25T06:17:28.445Z,67.25
2019-01-25T06:19:59.261Z,66.95
2019-01-25T06:22:37.297Z,66.81
2019-01-25T06:25:12.891Z,66.96
2019-01-25T06:27:44.136Z,66.97
2019-01-25T06:30:14.180Z,66.79
2019-01-25T06:32:44.009Z,66.56
2019-01-25T06:35:13.761Z,66.67
2019-01-25T06:37:43.509Z,66.54
2019-01-25T06:40:13.768Z,66.82
2019-01-25T06:42:43.915Z,67.05
2019-01-25T06:45:15.361Z,67.27
2019-01-25T06:47:45.555Z,67.31
2019-01-25T06:50:15.690Z,67.54
2019-01-25T06:52:45.454Z,67.26
2019-01-25T06:55:16.210Z,67.15
2019-01-25T06:58:01.552Z,67.07
2019-01-25T07:00:33.837Z,67.00
2019-01-25T07:03:04.873Z,66.60
2019-01-25T07:05:34.541Z,66.69
2019-01-25T07:08:08.188Z,66.70
2019-01-25T07:10:37.873Z,66.65
2019-01-25T07:13:08.554Z,66.85
2019-01-25T07:15:52.132Z,67.02
2019-01-25T07:18:23.210Z,67.19
2019-01-25T07:20:52.894Z,67.15
2019-01-25T07:23:22.578Z,67.02
2019-01-25T07:25:52.245Z,66.72
2019-01-25T07:28:23.829Z,66.80
2019-01-25T07:30:53.892Z,67.00
2019-01-25T07:33:24.645Z,67.06
2019-01-25T07:35:54.469Z,67.14
2019-01-25T07:38:24.356Z,67.31
2019-01-25T07:40:54.707Z,67.42
2019-01-25T07:43:24.456Z,67.55
2019-01-25T07:45:54.448Z,67.61
2019-01-25T07:48:24.173Z,67.50
2019-01-25T07:50:54.414Z,67.49
2019-01-25T07:53:24.496Z,67.54
2019-01-25T07:55:54.189Z,67.74
2019-01-25T07:58:24.359Z,67.71
2019-01-25T08:00:54.117Z,67.75
2019-01-25T08:03:24.381Z,67.66
2019-01-25T08:05:54.027Z,67.70
2019-01-25T08:08:24.413Z,67.68
2019-01-25T08:10:54.793Z,67.74
2019-01-25T08:13:25.058Z,67.74
2019-01-25T08:15:54.757Z,67.94
2019-01-25T08:18:24.589Z,68.04
2019-01-25T08:20:54.858Z,68.33
2019-01-25T08:23:24.526Z,68.23
2019-01-25T08:25:56.659Z,68.40
2019-01-25T08:28:26.462Z,68.56
2019-01-25T08:30:56.825Z,68.67
2019-01-25T08:33:26.519Z,68.63
2019-01-25T08:35:56.432Z,68.24
2019-01-25T08:38:26.144Z,68.21
2019-01-25T08:40:56.173Z,68.37
2019-01-25T08:43:25.848Z,68.44
2019-01-25T08:45:56.725Z,68.14
2019-01-25T08:48:29.223Z,68.13
2019-01-25T08:50:59.197Z,68.48
2019-01-25T08:53:29.297Z,68.64
2019-01-25T08:55:59.765Z,68.72
2019-01-25T08:58:29.922Z,68.65
2019-01-25T09:00:59.679Z,68.67
2019-01-25T09:03:29.438Z,68.66
2019-01-25T09:06:09.322Z,68.57
2019-01-25T09:08:39.154Z,68.46
2019-01-25T09:11:09.393Z,68.34
2019-01-25T09:13:39.085Z,68.42
2019-01-25T09:16:09.482Z,68.38
2019-01-25T09:18:39.151Z,68.36
2019-01-25T09:21:09.291Z,68.75
2019-01-25T09:23:44.787Z,68.85
2019-01-25T09:31:56.857Z,69.16
2019-01-25T09:34:27.255Z,69.02
2019-01-25T09:36:56.943Z,69.20
2019-01-25T09:39:30.235Z,69.29
2019-01-25T09:42:00.826Z,69.62
2019-01-25T09:44:30.902Z,69.24
2019-01-25T09:47:00.653Z,69.21
2019-01-25T09:49:31.041Z,69.44
2019-01-25T09:52:00.729Z,69.88
2019-01-25T09:54:30.498Z,70.19
2019-01-25T09:57:01.297Z,70.30
2019-01-25T10:02:25.208Z,70.38
2019-01-25T10:04:55.189Z,70.67
2019-01-25T10:07:25.027Z,70.85
2019-01-25T10:09:54.894Z,70.75
2019-01-25T10:12:24.570Z,70.75
2019-01-25T10:14:54.267Z,70.67
2019-01-25T10:17:23.944Z,70.77
2019-01-25T10:19:53.626Z,70.83
2019-01-25T10:22:23.313Z,71.52
2019-01-25T10:24:54.375Z,71.80
2019-01-25T10:27:24.395Z,71.93
2019-01-25T10:29:54.362Z,71.97
2019-01-25T10:32:24.111Z,71.83
2019-01-25T10:34:53.816Z,71.75
2019-01-25T10:37:23.726Z,71.53
2019-01-25T10:39:53.403Z,71.62
2019-01-25T10:42:23.091Z,71.55
2019-01-25T10:44:52.775Z,71.82
2019-01-25T10:47:23.415Z,72.01
2019-01-25T10:49:53.112Z,72.35
2019-01-25T10:52:22.961Z,72.38
2019-01-25T10:54:52.729Z,72.46
2019-01-25T10:57:22.484Z,72.93
2019-01-25T10:59:52.431Z,72.85
2019-01-25T11:02:22.380Z,72.94
2019-01-25T11:04:52.143Z,72.99
2019-01-25T11:07:21.827Z,73.08
2019-01-25T11:09:51.764Z,73.50
2019-01-25T11:12:21.917Z,73.74
2019-01-25T11:14:51.605Z,74.00
2019-01-25T11:17:21.290Z,74.08
2019-01-25T11:19:51.046Z,74.26
2019-01-25T11:22:20.730Z,74.21
2019-01-25T11:24:50.481Z,74.07
2019-01-25T11:27:20.162Z,74.20
2019-01-25T11:29:50.882Z,74.30
2019-01-25T11:32:21.318Z,74.35
2019-01-25T11:34:51.374Z,74.52
2019-01-25T11:37:21.060Z,74.59
2019-01-25T11:39:52.689Z,74.83
2019-01-25T11:42:22.396Z,74.92
2019-01-25T11:44:52.344Z,75.28
2019-01-25T11:47:22.742Z,75.48
2019-01-25T11:49:52.430Z,75.80
2019-01-25T11:52:25.145Z,76.01
2019-01-25T11:54:54.406Z,76.10
2019-01-25T11:57:24.120Z,76.30
2019-01-25T11:59:54.772Z,76.36
2019-01-25T12:02:24.735Z,76.42
2019-01-25T12:04:55.411Z,76.47
2019-01-25T12:07:25.098Z,76.52
2019-01-25T12:09:55.121Z,76.48
2019-01-25T12:12:25.755Z,76.42
2019-01-25T12:14:55.409Z,76.64
2019-01-25T12:17:26.079Z,76.86
2019-01-25T12:19:57.264Z,77.25
2019-01-25T12:22:27.393Z,77.54
2019-01-25T12:27:48.141Z,77.93
2019-01-25T12:30:23.770Z,78.60
2019-01-25T12:32:53.578Z,78.70
2019-01-25T12:35:23.367Z,78.73
2019-01-25T12:37:53.147Z,78.83
2019-01-25T12:40:22.907Z,78.81
2019-01-25T12:42:52.600Z,78.84
2019-01-25T12:45:24.324Z,78.86
2019-01-25T12:47:54.426Z,78.97
2019-01-25T12:50:26.764Z,78.95
2019-01-25T12:52:56.540Z,78.99
2019-01-25T12:55:26.323Z,79.04
2019-01-25T12:57:56.016Z,79.19
2019-01-25T13:00:25.854Z,79.52
2019-01-25T13:02:55.875Z,79.64
2019-01-25T13:05:27.003Z,80.27
2019-01-25T13:07:57.147Z,80.50
2019-01-25T13:10:27.033Z,80.95
2019-01-25T13:12:56.865Z,81.03
2019-01-25T13:15:26.870Z,81.39
2019-01-25T13:17:56.699Z,81.58
2019-01-25T13:20:28.393Z,81.76
2019-01-25T13:22:58.470Z,81.95
2019-01-25T13:25:47.244Z,82.08
2019-01-25T13:28:16.672Z,82.46
2019-01-25T13:30:46.359Z,82.82
2019-01-25T13:33:17.836Z,83.03
2019-01-25T13:35:47.578Z,82.92
2019-01-25T13:38:17.270Z,82.91
2019-01-25T13:40:47.141Z,82.89
2019-01-25T13:43:17.069Z,82.78
2019-01-25T13:45:46.888Z,83.05
2019-01-25T13:48:16.769Z,82.88
2019-01-25T13:50:58.714Z,82.71
2019-01-25T13:53:33.002Z,82.73
2019-01-25T13:56:03.598Z,82.80
2019-01-25T13:58:33.489Z,82.57
2019-01-25T14:01:03.767Z,82.51
2019-01-25T14:03:33.778Z,82.31
2019-01-25T14:06:03.521Z,82.25
2019-01-25T14:08:33.283Z,82.24
2019-01-25T14:11:02.958Z,82.17
2019-01-25T14:13:34.181Z,82.11
2019-01-25T14:16:04.566Z,82.25
2019-01-25T14:18:34.254Z,82.20
2019-01-25T14:21:05.218Z,82.12
2019-01-25T14:23:35.504Z,82.11
2019-01-25T14:26:05.965Z,82.07
2019-01-25T14:28:35.653Z,82.07
2019-01-25T14:31:05.480Z,82.09
2019-01-25T14:33:35.248Z,82.25
2019-01-25T14:36:05.510Z,82.30
2019-01-25T14:38:35.184Z,82.29
2019-01-25T14:41:05.352Z,82.25
2019-01-25T14:43:35.620Z,82.35
2019-01-25T14:46:05.738Z,82.41
2019-01-25T14:54:09.615Z,82.68
2019-01-25T14:56:39.301Z,82.99
2019-01-25T14:59:09.677Z,83.14
2019-01-25T15:04:39.344Z,83.32
2019-01-25T15:07:09.554Z,83.33
2019-01-25T15:09:39.329Z,83.21
2019-01-25T15:12:09.684Z,83.21
2019-01-25T15:14:40.614Z,83.62
2019-01-25T15:17:10.466Z,83.63
2019-01-25T15:19:40.974Z,83.67
2019-01-25T15:22:11.498Z,83.70
2019-01-25T15:24:41.983Z,83.68
2019-01-25T15:27:11.725Z,83.78
2019-01-25T15:35:22.561Z,83.75
2019-01-25T15:37:52.531Z,83.72
2019-01-25T15:40:22.407Z,83.74
2019-01-25T15:42:52.612Z,83.79
2019-01-25T15:45:23.118Z,83.97
2019-01-25T15:47:52.968Z,84.12
2019-01-25T15:50:27.604Z,84.14
2019-01-25T15:52:57.722Z,84.13
2019-01-25T15:55:27.864Z,84.19
2019-01-25T15:57:57.682Z,84.55
2019-01-25T16:00:29.085Z,84.50
2019-01-25T16:02:58.805Z,84.54
2019-01-25T16:05:28.842Z,84.49
2019-01-25T16:07:58.589Z,84.47
2019-01-25T16:10:28.352Z,84.73
2019-01-25T16:12:58.089Z,84.67
2019-01-25T16:15:29.818Z,84.77
2019-01-25T16:17:59.840Z,84.67
2019-01-25T16:20:30.154Z,84.73
2019-01-25T16:22:59.976Z,84.90
2019-01-25T16:25:31.752Z,84.91
2019-01-25T16:28:01.514Z,85.04
2019-01-25T16:30:39.088Z,85.05
2019-01-25T16:33:08.988Z,85.03
2019-01-25T16:35:38.682Z,85.15
2019-01-25T16:38:08.444Z,85.18
2019-01-25T16:40:38.126Z,85.48
2019-01-25T16:43:10.766Z,85.48
2019-01-25T16:45:42.613Z,85.35
2019-01-25T16:48:12.953Z,85.42
2019-01-25T16:50:42.714Z,85.25
2019-01-25T16:53:14.692Z,85.47
2019-01-25T16:55:45.107Z,85.53
2019-01-25T16:58:14.799Z,85.68
2019-01-25T17:00:53.348Z,85.70
2019-01-25T17:03:23.859Z,85.79
2019-01-25T17:05:54.611Z,85.99
2019-01-25T17:08:24.405Z,86.12
2019-01-25T17:10:54.539Z,86.11
2019-01-25T17:13:24.558Z,86.24
2019-01-25T17:15:55.465Z,86.32
2019-01-25T17:18:25.923Z,86.62
2019-01-25T17:20:55.616Z,86.49
2019-01-25T17:23:25.303Z,86.50
2019-01-25T17:25:55.335Z,86.56
2019-01-25T17:28:27.146Z,86.51
2019-01-25T17:30:56.882Z,86.54
2019-01-25T17:33:48.725Z,86.63
2019-01-25T17:36:18.410Z,86.76
2019-01-25T17:41:43.028Z,86.90
2019-01-25T17:44:12.844Z,86.82
2019-01-25T17:46:42.912Z,86.93
2019-01-25T17:49:12.670Z,86.96
2019-01-25T17:51:42.446Z,86.90
2019-01-25T17:54:12.425Z,86.98
2019-01-25T17:56:42.630Z,86.98
2019-01-25T17:59:12.760Z,87.05
2019-01-25T18:01:42.568Z,87.05
2019-01-25T18:04:12.742Z,87.05
2019-01-25T18:06:43.464Z,86.99
2019-01-25T18:09:13.298Z,86.98
2019-01-25T18:11:43.035Z,87.06
2019-01-25T18:14:13.720Z,87.16
2019-01-25T18:16:43.759Z,87.24
2019-01-25T18:19:13.434Z,87.15
2019-01-25T18:21:43.536Z,87.15
2019-01-25T18:24:13.213Z,87.51
2019-01-25T18:26:42.930Z,87.70
2019-01-25T18:29:27.247Z,87.91
2019-01-25T18:31:56.914Z,88.00
2019-01-25T18:34:26.599Z,88.11
2019-01-25T18:36:56.820Z,88.22
2019-01-25T18:39:27.098Z,88.29
2019-01-25T18:41:56.855Z,88.33
2019-01-25T18:44:26.528Z,88.32
2019-01-25T18:46:56.259Z,88.35
2019-01-25T18:49:25.933Z,88.46
2019-01-25T18:51:56.565Z,88.39
2019-01-25T18:54:26.449Z,88.51
2019-01-25T18:56:56.494Z,88.66
2019-01-25T18:59:26.600Z,88.58
2019-01-25T19:01:56.929Z,88.64
2019-01-25T19:04:31.334Z,88.68
2019-01-25T19:07:01.337Z,88.93
2019-01-25T19:09:32.232Z,89.00
2019-01-25T19:12:02.331Z,89.01
2019-01-25T19:14:32.064Z,88.91
2019-01-25T19:17:01.900Z,88.92
2019-01-25T19:19:32.742Z,88.84
2019-01-25T19:22:03.084Z,88.88
2019-01-25T19:24:33.996Z,89.02
2019-01-25T19:27:03.666Z,89.14
2019-01-25T19:29:33.700Z,89.17
2019-01-25T19:32:04.399Z,89.16
2019-01-25T19:34:34.293Z,89.06
2019-01-25T19:37:05.213Z,88.99
2019-01-25T19:39:36.053Z,89.09
2019-01-25T19:42:06.419Z,89.13
2019-01-25T19:44:36.717Z,89.22
2019-01-25T19:47:06.528Z,89.24
2019-01-25T19:49:36.714Z,89.35
2019-01-25T19:52:07.059Z,89.45
2019-01-25T19:54:36.746Z,89.42
2019-01-25T19:57:07.128Z,89.36
2019-01-25T19:59:36.821Z,89.20
2019-01-25T20:02:06.641Z,89.26
2019-01-25T20:04:36.386Z,89.36
2019-01-25T20:07:06.221Z,89.46
2019-01-25T20:09:35.956Z,89.37
2019-01-25T20:12:06.248Z,89.44
2019-01-25T20:14:35.913Z,89.32
2019-01-25T20:19:59.048Z,89.43
2019-01-25T20:22:28.716Z,89.28
2019-01-25T20:25:33.417Z,89.38
2019-01-25T20:28:03.569Z,89.47
2019-01-25T20:30:33.642Z,89.47
2019-01-25T20:33:03.712Z,89.52
2019-01-25T20:35:35.621Z,89.58
2019-01-25T20:38:06.404Z,89.50
2019-01-25T20:40:36.604Z,89.43
2019-01-25T20:43:06.429Z,89.57
2019-01-25T20:45:37.916Z,89.63
2019-01-25T20:48:08.007Z,89.60
2019-01-25T20:50:37.931Z,89.58
2019-01-25T20:53:09.478Z,89.57
2019-01-25T20:55:39.315Z,89.65
2019-01-25T20:58:09.472Z,89.63
2019-01-25T21:00:40.015Z,89.48
2019-01-25T21:03:12.154Z,89.49
2019-01-25T21:05:41.832Z,89.47
2019-01-25T21:08:11.857Z,89.66
2019-01-25T21:10:41.813Z,89.68
2019-01-25T21:13:12.114Z,89.63
2019-01-25T21:15:42.354Z,89.71
2019-01-25T21:18:12.177Z,89.91
2019-01-25T21:20:44.194Z,89.99
2019-01-25T21:23:14.138Z,89.99
2019-01-25T21:25:44.793Z,90.00
2019-01-25T21:28:14.628Z,90.01
2019-01-25T21:30:44.547Z,90.01
2019-01-25T21:33:14.528Z,90.06
2019-01-25T21:35:44.293Z,90.09
2019-01-25T21:38:14.047Z,90.21
2019-01-25T21:40:44.198Z,90.17
2019-01-25T21:43:13.947Z,90.11
2019-01-25T21:45:43.644Z,90.09
2019-01-25T21:48:17.488Z,90.21
2019-01-25T21:50:48.716Z,90.17
2019-01-25T21:53:18.484Z,90.20
2019-01-25T21:55:48.584Z,90.40
2019-01-25T21:58:18.334Z,90.57
2019-01-25T22:00:48.009Z,90.60
2019-01-25T22:03:17.748Z,90.71
2019-01-25T22:05:47.420Z,90.75
2019-01-25T22:08:17.421Z,90.67
2019-01-25T22:10:49.386Z,90.67
2019-01-25T22:13:19.540Z,90.71
2019-01-25T22:15:51.045Z,90.73
2019-01-25T22:18:20.716Z,90.84
2019-01-25T22:20:50.487Z,90.82
2019-01-25T22:23:20.314Z,90.83
2019-01-25T22:25:50.476Z,90.93
2019-01-25T22:28:20.529Z,91.07
2019-01-25T22:30:50.557Z,91.10
2019-01-25T22:33:20.276Z,91.10
2019-01-25T22:35:50.401Z,91.08
2019-01-25T22:38:20.073Z,91.08
2019-01-25T22:40:50.050Z,91.15
2019-01-25T22:43:19.741Z,91.20
2019-01-25T22:45:49.433Z,91.15
2019-01-25T22:48:19.181Z,91.07
2019-01-25T22:50:48.936Z,91.04
2019-01-25T22:53:18.612Z,91.13
2019-01-25T22:55:48.370Z,91.10
2019-01-25T22:58:18.154Z,91.02
2019-01-25T23:01:27.554Z,91.03
2019-01-25T23:04:43.547Z,91.12
2019-01-25T23:07:16.166Z,91.29
2019-01-25T23:10:09.045Z,91.37
2019-01-25T23:12:38.942Z,91.35
2019-01-25T23:15:10.952Z,91.34
2019-01-25T23:17:40.625Z,91.45
2019-01-25T23:22:41.733Z,91.46
2019-01-25T23:25:11.790Z,91.64
2019-01-25T23:27:41.466Z,91.58
2019-01-25T23:30:13.672Z,91.54
2019-01-25T23:32:43.348Z,91.51
2019-01-25T23:35:13.271Z,91.69
2019-01-25T23:37:42.945Z,91.68
2019-01-25T23:40:14.324Z,91.62
2019-01-25T23:42:44.004Z,91.60
2019-01-25T23:45:13.741Z,91.42
2019-01-25T23:47:43.409Z,91.39
2019-01-25T23:50:13.379Z,91.40
2019-01-25T23:52:43.126Z,91.53
2019-01-25T23:55:12.986Z,91.55
2019-01-25T23:57:42.613Z,91.51
